Time;durP1;ratioP1;P1;durP2;ratioP2;P2;SDS_P1;SDS_P2;PMS_P1;PMS_P2;Temp;Humidity;BMP_temperature;BMP_pressure;BME280_temperature;BME280_humidity;BME280_pressure;Samples;Min_cycle;Max_cycle;Signal;HPM_P1;HPM_P2
2022/11/02 00:01:25;;;;;;;19.20;13.38;;;;;;;21.25;51.16;101130.16;1745459;80;21554;-78
2022/11/02 00:03:52;;;;;;;20.72;13.13;;;;;;;21.24;51.15;101129.33;1752411;81;21058;-78
2022/11/02 00:06:18;;;;;;;19.42;13.03;;;;;;;21.25;51.12;101130.97;1749896;80;20977;-78
2022/11/02 00:08:45;;;;;;;21.57;13.13;;;;;;;21.25;51.11;101130.16;1747447;81;21173;-78
2022/11/02 00:11:11;;;;;;;17.98;12.70;;;;;;;21.25;51.10;101127.39;1747365;80;21076;-78
2022/11/02 00:13:38;;;;;;;18.60;13.38;;;;;;;21.26;51.07;101122.11;1747669;80;21101;-78
2022/11/02 00:16:06;;;;;;;21.50;14.15;;;;;;;21.24;51.07;101126.56;1749172;81;21116;-78
2022/11/02 00:18:33;;;;;;;19.23;12.90;;;;;;;21.24;51.06;101121.03;1747245;81;21655;-78
2022/11/02 00:21:00;;;;;;;18.07;13.50;;;;;;;21.24;51.05;101121.59;1746089;81;20955;-78
2022/11/02 00:23:32;;;;;;;22.48;13.85;;;;;;;21.23;51.04;101123.54;1746740;80;21062;-78
2022/11/02 00:26:00;;;;;;;17.90;12.82;;;;;;;21.23;51.02;101121.34;1749401;80;21454;-78
2022/11/02 00:28:27;;;;;;;18.90;12.35;;;;;;;21.24;51.01;101125.74;1723143;82;21129;-78
2022/11/02 00:30:59;;;;;;;18.67;13.32;;;;;;;21.24;51.00;101121.59;1752130;80;21159;-78
2022/11/02 00:33:25;;;;;;;18.87;13.28;;;;;;;21.22;50.99;101121.89;1746800;80;21905;-78
2022/11/02 00:35:53;;;;;;;16.57;12.15;;;;;;;21.23;50.98;101111.65;1748030;80;21042;-78
2022/11/02 00:38:20;;;;;;;19.32;13.08;;;;;;;21.23;50.95;101114.42;1746608;82;21434;-78
2022/11/02 00:40:46;;;;;;;17.67;13.55;;;;;;;21.22;50.93;101108.06;1719564;81;21098;-78
2022/11/02 00:43:12;;;;;;;20.77;13.45;;;;;;;21.21;50.93;101106.45;1721930;80;21031;-78
2022/11/02 00:45:39;;;;;;;19.67;12.65;;;;;;;21.22;50.93;101103.91;1750678;80;21202;-78
2022/11/02 00:48:06;;;;;;;18.37;13.43;;;;;;;21.21;50.92;101102.30;1750119;80;20955;-78
2022/11/02 00:50:32;;;;;;;19.42;13.22;;;;;;;21.21;50.89;101100.09;1749196;80;21006;-79
2022/11/02 00:52:58;;;;;;;21.23;13.28;;;;;;;21.22;50.89;101097.55;1717937;82;21098;-78
2022/11/02 00:55:25;;;;;;;17.52;13.08;;;;;;;21.21;50.87;101108.39;1751794;80;21073;-78
2022/11/02 00:57:52;;;;;;;22.15;13.13;;;;;;;21.22;50.86;101101.70;1760065;80;21485;-78
2022/11/02 01:00:19;;;;;;;18.35;13.20;;;;;;;21.21;50.86;101095.94;1760084;80;21113;-78
2022/11/02 01:02:45;;;;;;;21.37;13.75;;;;;;;21.21;50.85;101093.17;1757701;80;21631;-78
2022/11/02 01:05:12;;;;;;;19.12;13.25;;;;;;;21.21;50.85;101090.41;1758987;80;21070;-78
2022/11/02 01:07:38;;;;;;;24.23;13.32;;;;;;;21.20;50.81;101091.53;1759590;80;21228;-78
2022/11/02 01:10:08;;;;;;;20.52;13.35;;;;;;;21.20;50.80;101087.38;1757457;79;21169;-78
2022/11/02 01:12:38;;;;;;;24.95;13.95;;;;;;;21.19;50.80;101084.36;1759538;80;21547;-79
2022/11/02 01:15:06;;;;;;;19.10;13.00;;;;;;;21.19;50.79;101085.17;1756582;81;21081;-78
2022/11/02 01:17:33;;;;;;;18.50;12.28;;;;;;;21.19;50.79;101081.59;1756398;80;21007;-78
2022/11/02 01:19:59;;;;;;;17.55;12.20;;;;;;;21.19;50.76;101073.28;1757411;81;21065;-78
2022/11/02 01:22:26;;;;;;;18.48;12.50;;;;;;;21.18;50.75;101075.23;1729920;80;21173;-78
2022/11/02 01:24:52;;;;;;;20.52;13.22;;;;;;;21.20;50.73;101081.84;1758649;80;21550;-78
2022/11/02 01:27:19;;;;;;;17.50;12.82;;;;;;;21.19;50.73;101073.28;1759379;79;21029;-78
2022/11/02 01:30:05;;;;;;;17.65;12.03;;;;;;;21.19;50.70;101071.91;1758242;80;20963;-78
2022/11/02 01:32:31;;;;;;;17.05;12.13;;;;;;;21.17;50.70;101066.70;1750328;81;21096;-78
2022/11/02 01:34:57;;;;;;;19.07;12.73;;;;;;;21.17;50.69;101065.33;1728770;81;21164;-78
2022/11/02 01:37:24;;;;;;;16.30;13.00;;;;;;;21.18;50.69;101064.73;1748863;81;21030;-78
2022/11/02 01:39:50;;;;;;;19.10;13.35;;;;;;;21.17;50.66;101064.50;1745171;81;21110;-78
2022/11/02 01:42:24;;;;;;;17.77;12.63;;;;;;;21.18;50.67;101066.11;1666919;81;21467;-78
2022/11/02 01:44:50;;;;;;;15.15;12.25;;;;;;;21.17;50.66;101063.94;1748574;80;21079;-78
2022/11/02 01:47:29;;;;;;;18.67;13.05;;;;;;;21.17;50.63;101057.58;1747623;80;21432;-78
2022/11/02 01:50:03;;;;;;;20.00;12.95;;;;;;;21.17;50.62;101058.97;1743165;81;21094;-78
2022/11/02 01:52:34;;;;;;;16.17;11.93;;;;;;;21.16;50.58;101059.53;1747433;81;21097;-78
2022/11/02 01:55:21;;;;;;;17.27;12.43;;;;;;;21.16;50.60;101051.23;1747620;81;21585;-78
2022/11/02 01:57:54;;;;;;;19.02;13.20;;;;;;;21.16;50.56;101054.00;1748592;80;21073;-78
2022/11/02 02:00:21;;;;;;;19.05;13.00;;;;;;;21.15;50.55;101048.20;1746382;80;21262;-80
2022/11/02 02:03:17;;;;;;;18.00;12.30;;;;;;;21.14;50.51;101046.56;1744892;81;21159;-78
2022/11/02 02:05:57;;;;;;;17.90;11.28;;;;;;;21.15;50.52;101046.00;1747713;80;21074;-77
2022/11/02 02:08:31;;;;;;;17.07;12.78;;;;;;;21.14;50.50;101042.41;1748499;80;38826;-78
2022/11/02 02:10:57;;;;;;;19.20;13.05;;;;;;;21.13;50.49;101038.00;1741865;81;21461;-77
2022/11/02 02:13:25;;;;;;;17.50;12.40;;;;;;;21.13;50.47;101035.83;1748123;81;21109;-78
2022/11/02 02:16:09;;;;;;;21.45;12.98;;;;;;;21.13;50.47;101036.63;1748048;81;21085;-78
2022/11/02 02:18:43;;;;;;;18.73;12.50;;;;;;;21.12;50.49;101033.63;1747667;80;21086;-79
2022/11/02 02:21:30;;;;;;;17.02;13.03;;;;;;;21.13;50.45;101033.06;1746685;79;21127;-77
2022/11/02 02:24:24;;;;;;;16.62;11.50;;;;;;;21.11;50.45;101030.58;1745994;80;21601;-77
2022/11/02 02:27:11;;;;;;;18.20;12.05;;;;;;;21.12;50.43;101031.39;1748101;80;21845;-77
2022/11/02 02:29:55;;;;;;;19.60;12.10;;;;;;;21.10;50.41;101027.55;1750875;81;20999;-77
2022/11/02 02:32:39;;;;;;;16.93;12.55;;;;;;;21.11;50.39;101025.60;1748056;80;21536;-77
2022/11/02 02:35:20;;;;;;;16.45;12.03;;;;;;;21.10;50.39;101022.02;1750319;80;21304;-77
2022/11/02 02:38:02;;;;;;;18.50;12.63;;;;;;;21.09;50.39;101030.05;1719159;80;21125;-77
2022/11/02 02:40:33;;;;;;;19.25;13.10;;;;;;;21.08;50.37;101022.91;1748328;80;20943;-77
2022/11/02 02:43:16;;;;;;;17.27;12.80;;;;;;;21.08;50.37;101014.61;1750612;81;21620;-77
2022/11/02 02:45:48;;;;;;;18.12;11.75;;;;;;;21.08;50.35;101017.94;1745533;81;21036;-78
2022/11/02 02:48:26;;;;;;;17.62;11.53;;;;;;;21.08;50.33;101011.84;1746926;80;21049;-77
2022/11/02 02:50:58;;;;;;;18.70;12.15;;;;;;;21.08;50.35;101009.64;1746943;81;21642;-77
2022/11/02 02:53:28;;;;;;;19.37;12.03;;;;;;;21.08;50.34;101012.41;1746643;80;21130;-78
2022/11/02 02:55:55;;;;;;;17.90;12.68;;;;;;;21.07;50.33;101012.15;1748037;80;21141;-77
2022/11/02 02:58:24;;;;;;;18.35;12.68;;;;;;;21.07;50.33;101011.59;1702794;82;20994;-77
2022/11/02 03:00:51;;;;;;;18.92;12.45;;;;;;;21.06;50.33;101001.65;1748214;81;21024;-77
2022/11/02 03:03:22;;;;;;;17.40;11.65;;;;;;;21.07;50.30;101001.09;1749060;81;20979;-77
2022/11/02 03:06:10;;;;;;;;;;;;;;;21.07;50.28;101003.85;1748995;81;21510;-78
2022/11/02 03:08:47;;;;;;;16.15;11.48;;;;;;;21.07;50.25;101001.91;1748196;80;20422;-77
2022/11/02 03:11:18;;;;;;;21.82;13.25;;;;;;;21.05;50.26;101000.00;1745969;81;25680;-77
2022/11/02 03:14:19;;;;;;;16.90;12.00;;;;;;;21.05;50.24;101000.00;1747271;81;21009;-78
2022/11/02 03:17:01;;;;;;;;;;;;;;;21.05;50.23;100999.22;1747441;81;21269;-78
2022/11/02 03:19:54;;;;;;;17.15;11.00;;;;;;;21.03;50.20;101003.67;1746792;81;21195;-77
2022/11/02 03:22:40;;;;;;;17.17;11.65;;;;;;;21.03;50.19;100998.70;1744810;81;21136;-77
2022/11/02 03:25:24;;;;;;;16.85;12.15;;;;;;;21.02;50.21;100998.44;1745159;81;21063;-78
2022/11/02 03:27:56;;;;;;;18.25;11.80;;;;;;;21.01;50.19;101001.77;1721039;81;22286;-78
2022/11/02 03:30:23;;;;;;;16.52;12.00;;;;;;;21.01;50.17;100994.03;1747794;81;20972;-78
2022/11/02 03:33:04;;;;;;;18.75;12.70;;;;;;;21.01;50.15;101000.95;1745116;81;21107;-77
2022/11/02 03:35:56;;;;;;;;;;;;;;;21.01;50.15;101005.10;1752411;80;21092;-77
2022/11/02 03:38:31;;;;;;;;;;;;;;;20.99;50.13;101004.05;1732284;81;20241;-78
2022/11/02 03:40:58;;;;;;;19.70;11.28;;;;;;;20.96;50.09;101008.25;1747248;81;20178;-77
2022/11/02 03:43:24;;;;;;;15.30;11.68;;;;;;;20.97;50.12;101009.07;1725703;82;21089;-77
2022/11/02 03:45:54;;;;;;;18.80;12.05;;;;;;;20.97;50.11;101003.54;1750164;81;21154;-77
2022/11/02 03:48:21;;;;;;;15.90;11.88;;;;;;;20.96;50.09;101009.63;1748090;80;21056;-78
2022/11/02 03:50:50;;;;;;;19.23;12.28;;;;;;;20.96;50.08;101005.48;1746756;81;21071;-77
2022/11/02 03:53:28;;;;;;;17.00;10.90;;;;;;;20.98;50.06;101006.00;1746278;81;21048;-77
2022/11/02 03:55:59;;;;;;;17.27;12.40;;;;;;;21.00;50.02;101003.48;1748618;80;21121;-77
2022/11/02 03:58:25;;;;;;;18.77;11.97;;;;;;;21.02;49.98;101012.27;1717402;81;21539;-77
2022/11/02 04:00:55;;;;;;;17.00;11.73;;;;;;;21.04;49.90;101014.17;1748780;80;22854;-77
2022/11/02 04:03:22;;;;;;;16.63;11.80;;;;;;;21.08;49.87;101016.56;1743204;80;21073;-77
2022/11/02 04:05:48;;;;;;;15.98;11.55;;;;;;;21.11;49.79;101017.30;1746068;80;21023;-78
2022/11/02 04:08:20;;;;;;;14.68;11.03;;;;;;;21.16;49.72;101022.18;1718644;82;21129;-77
2022/11/02 04:16:19;;;;;;;16.35;11.30;;;;;;;21.35;49.42;101019.17;1747792;80;21007;-77
2022/11/02 04:21:30;;;;;;;14.87;10.05;;;;;;;21.51;49.16;101008.53;1744205;81;21042;-77
2022/11/02 04:26:41;;;;;;;15.40;10.18;;;;;;;21.68;48.89;100999.73;1749608;80;21486;-77
2022/11/02 04:29:08;;;;;;;14.45;10.43;;;;;;;21.78;48.74;101001.38;1751642;80;21117;-78
2022/11/02 04:31:40;;;;;;;16.42;10.40;;;;;;;21.87;48.58;100993.91;1748992;80;21161;-77
2022/11/02 04:34:07;;;;;;;13.35;9.93;;;;;;;21.98;48.42;100997.25;1730613;81;21023;-78
2022/11/02 04:36:33;;;;;;;13.85;9.73;;;;;;;22.06;48.25;100988.95;1721957;81;21146;-78
2022/11/02 04:38:59;;;;;;;15.45;10.90;;;;;;;22.16;48.13;100980.88;1722762;81;20912;-78
2022/11/02 04:41:41;;;;;;;16.15;10.03;;;;;;;22.23;47.97;100982.05;1722479;81;21022;-77
2022/11/02 04:44:09;;;;;;;14.83;10.48;;;;;;;22.30;47.80;100982.37;1709196;83;21165;-78
2022/11/02 04:46:36;;;;;;;15.58;10.23;;;;;;;22.39;47.68;100987.92;1726769;82;21035;-78
2022/11/02 04:49:03;;;;;;;15.25;10.88;;;;;;;22.46;47.54;100984.09;1722594;82;21024;-78
2022/11/02 04:51:30;;;;;;;15.10;10.78;;;;;;;22.50;47.42;100980.91;1707081;82;21789;-78
2022/11/02 04:53:56;;;;;;;14.90;9.85;;;;;;;22.55;47.32;100980.75;1726284;82;21514;-78
2022/11/02 04:56:25;;;;;;;14.43;9.95;;;;;;;22.60;47.23;100974.22;1726908;80;21177;-78
2022/11/02 04:58:58;;;;;;;14.40;10.35;;;;;;;22.63;47.13;100977.72;1721929;81;21140;-78
2022/11/02 05:01:27;;;;;;;13.93;9.80;;;;;;;22.67;47.06;100977.31;1721564;82;21111;-78
2022/11/02 05:03:53;;;;;;;16.87;9.73;;;;;;;22.71;47.00;100974.16;1727222;82;21083;-78
2022/11/02 05:06:21;;;;;;;14.85;9.80;;;;;;;22.76;46.87;100977.59;1722248;81;21125;-78
2022/11/02 05:08:47;;;;;;;11.88;9.98;;;;;;;22.80;46.82;100977.73;1735784;80;21010;-78
2022/11/02 05:11:14;;;;;;;15.75;10.15;;;;;;;22.84;46.74;100984.83;1756881;81;21698;-78
2022/11/02 05:13:40;;;;;;;18.07;9.95;;;;;;;22.87;46.69;100985.58;1760016;79;21695;-78
2022/11/02 05:16:09;;;;;;;15.80;10.18;;;;;;;22.91;46.65;100989.33;1758776;79;21053;-78
2022/11/02 05:18:35;;;;;;;16.35;9.65;;;;;;;22.93;46.60;100997.55;1728751;81;21066;-76
2022/11/02 05:21:01;;;;;;;17.92;9.40;;;;;;;22.97;46.52;101001.30;1760065;80;21615;-77
2022/11/02 05:23:28;;;;;;;15.75;9.85;;;;;;;22.99;46.47;100999.03;1757642;81;21005;-76
2022/11/02 05:26:00;;;;;;;15.08;9.63;;;;;;;23.02;46.42;100997.54;1755111;80;21191;-77
2022/11/02 05:28:27;;;;;;;14.90;9.18;;;;;;;23.03;46.34;100998.61;1755308;80;21091;-75
2022/11/02 05:30:53;;;;;;;14.95;9.90;;;;;;;23.05;46.27;100999.65;1748461;81;21069;-75
2022/11/02 05:33:19;;;;;;;14.10;9.95;;;;;;;23.08;46.19;100999.02;1758488;81;21124;-77
2022/11/02 05:35:46;;;;;;;14.95;9.15;;;;;;;23.10;46.11;100996.14;1757642;81;21501;-77
2022/11/02 05:38:12;;;;;;;15.28;10.25;;;;;;;23.14;46.05;101001.27;1759637;80;21517;-77
2022/11/02 05:40:39;;;;;;;19.17;10.95;;;;;;;23.17;45.97;101006.15;1745715;81;21506;-78
2022/11/02 05:43:07;;;;;;;19.60;10.03;;;;;;;23.19;45.89;101007.22;1693157;82;21049;-80
2022/11/02 05:45:34;;;;;;;21.93;10.48;;;;;;;23.19;45.77;101010.81;1703903;83;21162;-81
2022/11/02 05:48:01;;;;;;;40.25;11.28;;;;;;;23.18;45.72;101012.52;1690871;82;21614;-80
2022/11/02 05:50:29;;;;;;;34.73;11.70;;;;;;;23.17;45.62;101016.43;1741705;80;21038;-82
2022/11/02 05:52:56;;;;;;;39.92;11.97;;;;;;;23.13;45.55;101010.73;1722115;80;21644;-77
2022/11/02 05:55:23;;;;;;;32.10;12.78;;;;;;;23.13;45.51;101022.41;1733621;81;21734;-78
2022/11/02 05:57:52;;;;;;;49.60;11.33;;;;;;;23.11;45.49;101017.20;1733141;80;21084;-79
2022/11/02 06:00:19;;;;;;;48.75;11.55;;;;;;;23.08;45.46;101011.50;1738526;81;21051;-79
2022/11/02 06:02:49;;;;;;;38.78;13.05;;;;;;;23.03;45.44;101010.28;1737722;80;21794;-81
2022/11/02 06:05:16;;;;;;;37.65;12.33;;;;;;;23.00;45.44;101010.94;1743617;80;21125;-82
2022/11/02 06:07:44;;;;;;;36.88;11.48;;;;;;;22.96;45.55;101020.47;1743517;80;21092;-80
2022/11/02 06:10:11;;;;;;;39.25;12.07;;;;;;;22.94;45.66;101014.45;1743088;79;21067;-80
2022/11/02 06:12:37;;;;;;;39.90;12.70;;;;;;;22.92;45.75;101011.17;1738589;80;21101;-79
2022/11/02 06:15:04;;;;;;;34.85;10.78;;;;;;;22.91;45.78;101011.52;1718927;80;21218;-80
2022/11/02 06:17:38;;;;;;;31.80;11.12;;;;;;;22.89;45.88;101021.55;1748290;80;21855;-81
2022/11/02 06:20:07;;;;;;;34.13;11.63;;;;;;;22.87;45.96;101021.65;1750331;80;21598;-81
2022/11/02 06:22:40;;;;;;;30.90;11.60;;;;;;;22.85;46.05;101020.58;1745035;80;21051;-79
2022/11/02 06:25:07;;;;;;;33.70;12.00;;;;;;;22.83;46.09;101017.90;1740196;80;21084;-82
2022/11/02 06:27:33;;;;;;;26.10;11.63;;;;;;;22.81;46.15;101020.17;1746613;81;21150;-83
2022/11/02 06:30:00;;;;;;;32.42;11.70;;;;;;;22.79;46.17;101016.92;1745164;81;21619;-82
2022/11/02 06:32:27;;;;;;;31.12;13.18;;;;;;;22.75;46.24;101016.73;1740856;80;21102;-85
2022/11/02 06:34:53;;;;;;;29.37;12.35;;;;;;;22.73;46.25;101019.04;1744170;81;21752;-83
2022/11/02 06:37:21;;;;;;;25.43;13.45;;;;;;;22.70;46.35;101016.92;1743178;80;21583;-84
2022/11/02 06:39:47;;;;;;;25.72;12.70;;;;;;;22.67;46.46;101019.73;1742827;80;21871;-81
2022/11/02 06:42:14;;;;;;;35.40;13.93;;;;;;;22.65;46.52;101022.03;1740196;80;21135;-84
2022/11/02 06:44:40;;;;;;;32.45;13.28;;;;;;;22.65;46.65;101025.38;1754642;80;21034;-83
2022/11/02 06:47:07;;;;;;;37.58;16.32;;;;;;;22.62;46.74;101030.16;1717078;80;21193;-78
2022/11/02 06:49:41;;;;;;;28.62;14.70;;;;;;;22.60;46.69;101028.30;1746205;80;21135;-86
2022/11/02 06:52:09;;;;;;;39.78;14.33;;;;;;;22.58;46.75;101026.41;1745641;80;21959;-80
2022/11/02 06:54:41;;;;;;;42.53;14.50;;;;;;;22.56;46.91;101024.55;1746661;80;21085;-81
2022/11/02 06:57:08;;;;;;;44.50;14.23;;;;;;;22.53;47.04;101038.47;1722460;81;21182;-81
2022/11/02 06:59:34;;;;;;;46.65;14.28;;;;;;;22.51;47.18;101033.84;1746751;80;21830;-81
2022/11/02 07:02:01;;;;;;;60.33;14.93;;;;;;;22.49;47.42;101028.39;1750908;80;21230;-79
2022/11/02 07:04:27;;;;;;;54.13;15.78;;;;;;;22.49;47.69;101031.16;1729905;81;21103;-81
2022/11/02 07:06:53;;;;;;;72.20;14.60;;;;;;;22.47;48.01;101027.31;1729284;79;21075;-81
2022/11/02 07:09:20;;;;;;;62.62;14.50;;;;;;;22.47;48.12;101021.77;1743382;81;21031;-79
2022/11/02 07:11:46;;;;;;;60.52;13.22;;;;;;;22.45;48.18;101024.04;1741252;80;21121;-81
2022/11/02 07:14:15;;;;;;;46.68;13.80;;;;;;;22.44;48.22;101009.95;1735236;80;121501;-89
2022/11/02 07:16:51;;;;;;;41.05;13.85;;;;;;;22.43;48.29;101011.09;1739027;80;21976;-88
2022/11/02 07:19:19;;;;;;;36.73;14.20;;;;;;;22.42;48.34;101014.99;1741391;80;21571;-90
2022/11/02 07:21:46;;;;;;;48.13;14.90;;;;;;;22.40;48.39;101017.29;1732542;81;21092;-90
2022/11/02 07:24:12;;;;;;;44.70;15.78;;;;;;;22.40;48.40;101020.06;1743955;80;21344;-90
2022/11/02 07:26:40;;;;;;;40.60;13.80;;;;;;;22.40;48.40;101017.86;1753931;80;21074;-90
2022/11/02 07:29:08;;;;;;;34.33;13.68;;;;;;;22.38;48.40;101019.55;1745897;80;21191;-91
2022/11/02 07:31:36;;;;;;;36.73;13.85;;;;;;;22.38;48.39;101015.40;1754837;79;21159;-89
2022/11/02 07:34:03;;;;;;;38.08;14.23;;;;;;;22.36;48.39;101014.11;1747480;80;21065;-89
2022/11/02 07:36:32;;;;;;;44.27;14.60;;;;;;;22.35;48.39;101014.67;1736704;80;21143;-90
2022/11/02 07:38:59;;;;;;;38.95;15.60;;;;;;;22.34;48.40;101015.80;1755847;80;21048;-89
2022/11/02 07:41:27;;;;;;;39.88;14.75;;;;;;;22.31;48.36;101010.34;1761745;80;21190;-90
2022/11/02 07:43:59;;;;;;;34.03;14.15;;;;;;;22.31;48.36;101011.73;1753420;79;21548;-90
2022/11/02 07:46:26;;;;;;;42.13;17.23;;;;;;;22.30;48.35;101013.44;1754463;80;21638;-90
2022/11/02 07:48:56;;;;;;;52.85;17.90;;;;;;;;;;1770858;79;21048;-90
2022/11/02 07:51:24;;;;;;;46.02;16.77;;;;;;;22.25;48.37;101007.47;1740617;79;22426;-91
2022/11/02 07:53:51;;;;;;;54.70;16.57;;;;;;;22.25;48.66;101005.27;1726416;81;21927;-90
2022/11/02 07:56:18;;;;;;;53.42;16.05;;;;;;;22.25;49.06;100996.95;1758766;80;21028;-90
2022/11/02 07:58:45;;;;;;;59.45;16.37;;;;;;;22.25;49.44;101003.88;1704751;81;21623;-91
2022/11/02 08:01:11;;;;;;;65.32;16.62;;;;;;;22.25;49.71;100996.95;1753905;80;21064;-89
2022/11/02 08:03:38;;;;;;;58.58;18.23;;;;;;;22.25;49.98;100990.84;1754313;80;21113;-89
2022/11/02 08:06:05;;;;;;;64.85;17.25;;;;;;;22.26;50.11;100990.28;1758562;80;21887;-89
2022/11/02 08:08:32;;;;;;;66.47;16.57;;;;;;;22.25;50.15;100988.08;1733350;80;21130;-88
2022/11/02 08:11:06;;;;;;;54.08;16.02;;;;;;;22.25;50.19;100989.46;1672868;83;21157;-88
2022/11/02 08:13:36;;;;;;;55.05;15.75;;;;;;;22.25;50.22;100988.08;1668839;83;21543;-89
2022/11/02 08:16:05;;;;;;;47.38;16.20;;;;;;;22.24;50.21;100985.61;1678813;83;21073;-88
2022/11/02 08:18:31;;;;;;;49.65;15.55;;;;;;;22.22;50.24;100982.37;1692284;83;22413;-88
2022/11/02 08:21:01;;;;;;;46.50;16.67;;;;;;;22.22;50.38;100989.30;1688769;83;21165;-90
2022/11/02 08:23:42;;;;;;;46.18;15.00;;;;;;;22.21;50.34;100992.63;1679920;82;21185;-88
2022/11/02 08:26:26;;;;;;;39.80;14.63;;;;;;;22.21;50.33;100987.09;1687577;82;21347;-91
2022/11/02 08:28:41;;;;;;;36.93;14.90;;;;;;;22.20;50.34;100992.38;1721136;81;21137;-89
2022/11/02 08:31:13;;;;;;;39.80;14.83;;;;;;;22.19;50.34;100982.43;1728532;81;21179;-89
2022/11/02 08:33:41;;;;;;;45.63;14.98;;;;;;;22.19;50.34;100993.52;1710212;82;21212;-88
2022/11/02 08:36:08;;;;;;;41.83;14.83;;;;;;;22.19;50.35;100989.36;1744332;79;21638;-89
2022/11/02 08:38:34;;;;;;;38.10;14.70;;;;;;;22.19;50.34;100986.59;1763332;79;21106;-90
2022/11/02 08:41:01;;;;;;;39.50;15.25;;;;;;;22.19;50.33;100978.87;1755047;80;21039;-91
2022/11/02 08:43:32;;;;;;;37.93;15.18;;;;;;;22.18;50.34;100982.20;1761061;80;21571;-89
2022/11/02 08:45:59;;;;;;;32.67;13.62;;;;;;;22.18;50.34;100974.45;1761535;79;21103;-90
2022/11/02 08:48:28;;;;;;;56.20;15.55;;;;;;;22.18;50.35;100966.14;1751964;79;21092;-89
2022/11/02 08:50:55;;;;;;;57.93;14.75;;;;;;;22.18;50.20;100975.28;1750706;80;21205;-90
2022/11/02 08:53:21;;;;;;;59.00;14.87;;;;;;;22.15;50.51;100965.41;1748517;80;21081;-89
2022/11/02 08:55:48;;;;;;;66.28;14.58;;;;;;;22.16;51.01;100964.25;1731675;80;21171;-89
2022/11/02 08:58:15;;;;;;;54.70;14.83;;;;;;;22.19;51.43;100963.03;1743779;80;20954;-88
2022/11/02 09:00:41;;;;;;;62.00;15.75;;;;;;;22.21;51.75;100967.69;1726873;80;21112;-88
2022/11/02 09:03:13;;;;;;;61.98;17.48;;;;;;;22.25;52.26;100963.70;1755878;79;21080;-89
2022/11/02 09:05:42;;;;;;;56.95;15.35;;;;;;;22.29;52.56;100968.83;1742770;80;22383;-89
2022/11/02 09:08:19;;;;;;;52.08;15.85;;;;;;;22.29;52.62;100966.88;1757895;80;21153;-92
2022/11/02 09:10:50;;;;;;;52.50;14.85;;;;;;;22.30;52.53;100971.86;1756829;80;21171;-90
2022/11/02 09:13:19;;;;;;;35.17;14.53;;;;;;;22.29;52.47;100971.61;1757759;79;21123;-88
2022/11/02 09:15:52;;;;;;;37.35;14.98;;;;;;;22.27;52.39;100973.91;1747958;80;21078;-90
2022/11/02 09:18:19;;;;;;;36.98;13.43;;;;;;;22.27;52.36;100973.91;1746518;80;21594;-89
2022/11/02 09:20:47;;;;;;;56.33;15.78;;;;;;;22.24;52.33;100974.53;1757948;80;21067;-89
2022/11/02 09:23:19;;;;;;;46.70;14.47;;;;;;;22.23;52.36;100978.47;1688294;83;21196;-91
2022/11/02 09:25:45;;;;;;;34.38;14.25;;;;;;;22.22;52.34;100980.98;1696313;81;21043;-89
2022/11/02 09:28:13;;;;;;;44.33;16.37;;;;;;;22.21;52.33;100986.27;1755859;80;21088;-89
2022/11/02 09:30:40;;;;;;;39.50;17.55;;;;;;;22.20;52.28;100983.25;1743113;80;21103;-89
2022/11/02 09:33:08;;;;;;;34.08;17.15;;;;;;;22.20;52.36;100981.86;1740962;79;21170;-90
2022/11/02 09:35:43;;;;;;;38.10;14.75;;;;;;;22.19;52.36;100979.66;1748579;79;21726;-89
2022/11/02 09:38:09;;;;;;;38.35;15.88;;;;;;;22.20;52.71;100975.75;1761614;80;21051;-90
2022/11/02 09:40:44;;;;;;;52.23;16.20;;;;;;;22.21;53.00;100977.95;1749802;80;21472;-89
2022/11/02 09:43:37;;;;;;;54.53;16.93;;;;;;;22.22;53.57;100974.88;1748753;80;21138;-89
2022/11/02 09:46:20;;;;;;;51.58;14.98;;;;;;;22.24;54.03;100962.87;1742803;80;21024;-90
2022/11/02 09:52:12;;;;;;;48.10;14.63;;;;;;;22.27;53.85;100965.59;1608746;87;21086;-92
2022/11/02 09:54:52;;;;;;;33.25;14.43;;;;;;;22.29;53.64;100970.22;1672761;84;21848;-90
2022/11/02 09:57:31;;;;;;;47.88;14.10;;;;;;;22.30;53.41;100971.29;1640275;85;21152;-91
2022/11/02 10:00:07;;;;;;;38.15;13.10;;;;;;;22.30;53.23;100974.62;1668053;83;21691;-88
2022/11/02 10:03:19;;;;;;;43.45;13.40;;;;;;;22.30;53.10;100963.54;1655769;84;21979;-90
2022/11/02 10:06:29;;;;;;;42.38;13.65;;;;;;;22.31;52.87;100951.32;1625897;86;21111;-89
2022/11/02 10:15:28;;;;;;;34.03;13.63;;;;;;;22.28;52.47;100945.84;1678750;84;21076;-93
2022/11/02 10:23:56;;;;;;;26.23;12.88;;;;;;;22.23;52.27;100944.64;1766114;79;21610;-90
2022/11/02 10:26:43;;;;;;;;;;;;;;;;;;;;;
2022/11/02 10:30:03;;;;;;;;;;;;;;;;;;;;;
2022/11/02 10:32:25;;;;;;;27.13;12.60;;;;;;;22.19;51.66;100934.53;1755952;79;20256;-91
2022/11/02 10:35:10;;;;;;;28.92;13.78;;;;;;;22.15;51.52;100928.80;1755935;79;21496;-91
2022/11/02 10:38:33;;;;;;;25.40;13.60;;;;;;;22.14;51.48;100925.80;1767745;80;21148;-92
2022/11/02 10:41:34;;;;;;;27.90;13.10;;;;;;;22.14;51.23;100918.87;1745723;79;21227;-91
2022/11/02 10:44:39;;;;;;;26.52;14.07;;;;;;;22.11;51.17;100918.69;1757587;79;21455;-88
2022/11/02 10:47:26;;;;;;;23.55;13.13;;;;;;;22.10;51.06;100917.08;1752201;79;21098;-89
2022/11/02 10:50:37;;;;;;;25.35;13.65;;;;;;;22.07;50.98;100912.98;1723756;81;21571;-89
2022/11/02 10:53:08;;;;;;;25.90;14.40;;;;;;;22.06;50.94;100911.94;1745788;80;21054;-89
2022/11/02 10:56:01;;;;;;;38.98;14.80;;;;;;;22.05;50.98;100903.38;1752691;79;21113;-87
2022/11/02 10:58:29;;;;;;;38.92;14.07;;;;;;;22.07;51.13;100908.01;1717188;80;22006;-87
2022/11/02 11:01:08;;;;;;;46.80;13.98;;;;;;;22.08;51.51;100903.53;1737614;80;21118;-88
2022/11/02 11:03:56;;;;;;;57.90;14.38;;;;;;;22.15;51.64;100897.52;1735281;80;21977;-87
2022/11/02 11:06:36;;;;;;;61.77;13.95;;;;;;;22.18;51.57;100897.69;1736089;80;21520;-91
2022/11/02 11:09:32;;;;;;;81.70;14.53;;;;;;;22.22;51.75;100891.73;1750271;79;21945;-92
2022/11/02 11:12:07;;;;;;;70.80;16.12;;;;;;;22.29;51.80;100886.50;1730818;80;21887;-89
2022/11/02 11:14:45;;;;;;;62.58;14.13;;;;;;;22.32;51.98;100882.25;1743408;80;21152;-89
2022/11/02 11:17:36;;;;;;;44.35;13.58;;;;;;;22.32;52.07;100879.48;1752683;80;21164;-89
2022/11/02 11:20:56;;;;;;;;;;;;;;;;;;;;;
2022/11/02 11:23:35;;;;;;;36.50;13.10;;;;;;;22.29;52.14;100875.98;1727376;81;21821;-92
2022/11/02 11:26:04;;;;;;;35.55;12.20;;;;;;;22.26;52.22;100875.26;1735549;81;21708;-91
2022/11/02 11:32:17;;;;;;;31.55;11.60;;;;;;;22.24;52.39;100874.75;1768111;80;21057;-90
2022/11/02 11:35:06;;;;;;;23.42;11.80;;;;;;;22.21;52.41;100867.10;1684480;80;21084;-91
2022/11/02 11:37:35;;;;;;;29.63;12.25;;;;;;;22.18;52.43;100869.97;1714761;80;21068;-90
2022/11/02 11:40:08;;;;;;;23.75;11.73;;;;;;;22.18;52.38;100864.99;1764101;80;21534;-89
2022/11/02 11:42:41;;;;;;;27.52;12.15;;;;;;;22.16;52.36;100865.31;1726131;81;21330;-90
2022/11/02 11:45:29;;;;;;;26.70;12.33;;;;;;;22.17;52.24;100861.97;1744859;80;21044;-90
2022/11/02 11:48:10;;;;;;;28.95;12.43;;;;;;;22.15;52.17;100860.12;1752451;80;21599;-92
2022/11/02 11:50:53;;;;;;;28.42;11.93;;;;;;;22.15;52.07;100866.45;1756568;80;21068;-90
2022/11/02 11:53:34;;;;;;;30.90;12.53;;;;;;;22.14;52.02;100861.25;1726294;78;21350;-88
2022/11/02 11:56:07;;;;;;;37.23;12.93;;;;;;;22.13;52.00;100859.61;1751282;80;21067;-88
2022/11/02 11:58:36;;;;;;;52.13;12.98;;;;;;;22.15;52.39;100859.52;1754030;80;21527;-89
2022/11/02 12:01:23;;;;;;;57.00;11.43;;;;;;;22.20;52.38;100849.66;1767775;79;21068;-91
2022/11/02 12:03:59;;;;;;;56.88;13.08;;;;;;;22.27;52.17;100850.56;1755760;79;21198;-88
2022/11/02 12:06:55;;;;;;;76.22;12.50;;;;;;;22.31;51.93;100849.59;1739683;80;21152;-90
2022/11/02 12:09:48;;;;;;;35.20;11.88;;;;;;;22.33;51.71;100849.23;1739825;80;21594;-91